createdAt,value
2023-03-14T00:00:31.678Z,10.99
2023-03-14T00:03:01.010Z,10.95
2023-03-14T00:05:29.248Z,11.02
2023-03-14T00:07:57.256Z,11.01
2023-03-14T00:10:25.296Z,11.00
2023-03-14T00:12:53.242Z,11.04
2023-03-14T00:15:21.447Z,11.08
2023-03-14T00:17:49.364Z,11.08
2023-03-14T00:20:19.117Z,11.00
2023-03-14T00:22:47.133Z,10.93
2023-03-14T00:25:15.148Z,11.01
2023-03-14T00:27:43.149Z,11.03
2023-03-14T00:30:12.626Z,11.10
2023-03-14T00:32:40.735Z,11.20
2023-03-14T00:35:11.377Z,11.25
2023-03-14T00:37:40.778Z,11.21
2023-03-14T00:40:09.918Z,11.22
2023-03-14T00:42:37.923Z,11.19
2023-03-14T00:45:08.609Z,11.22
2023-03-14T00:47:36.612Z,11.25
2023-03-14T00:50:05.031Z,11.31
2023-03-14T00:52:33.022Z,11.28
2023-03-14T00:55:02.305Z,11.37
2023-03-14T00:57:30.324Z,11.29
2023-03-14T00:59:58.299Z,11.37
2023-03-14T01:02:26.285Z,11.34
2023-03-14T01:04:54.266Z,11.43
2023-03-14T01:07:23.912Z,11.43
2023-03-14T01:09:53.740Z,11.42
2023-03-14T01:12:23.082Z,11.38
2023-03-14T01:14:51.075Z,11.40
2023-03-14T01:17:19.046Z,11.37
2023-03-14T01:19:47.033Z,11.38
2023-03-14T01:22:15.021Z,11.33
2023-03-14T01:24:43.026Z,11.27
2023-03-14T01:27:10.923Z,11.25
2023-03-14T01:29:40.378Z,11.18
2023-03-14T01:32:08.746Z,11.26
2023-03-14T01:34:37.017Z,11.22
2023-03-14T01:37:05.049Z,11.34
2023-03-14T01:39:33.310Z,11.35
2023-03-14T01:42:02.265Z,11.44
2023-03-14T01:44:30.278Z,11.40
2023-03-14T01:46:59.674Z,11.54
2023-03-14T01:49:31.367Z,11.47
2023-03-14T01:52:13.721Z,11.37
2023-03-14T01:54:43.761Z,11.39
2023-03-14T01:57:15.044Z,11.42
2023-03-14T01:59:45.827Z,11.27
2023-03-14T02:02:15.796Z,11.28
2023-03-14T02:04:44.121Z,11.24
2023-03-14T02:07:18.554Z,11.25
2023-03-14T02:09:58.199Z,11.36
2023-03-14T02:12:29.472Z,11.32
2023-03-14T02:15:29.778Z,11.35
2023-03-14T02:18:06.610Z,11.36
2023-03-14T02:21:11.321Z,11.42
2023-03-14T02:23:43.399Z,11.42
2023-03-14T02:26:13.987Z,11.40
2023-03-14T02:28:43.400Z,11.54
2023-03-14T02:31:11.619Z,11.40
2023-03-14T02:33:40.575Z,11.48
2023-03-14T02:36:11.865Z,11.48
2023-03-14T02:38:43.046Z,11.35
2023-03-14T02:41:11.349Z,11.43
2023-03-14T02:43:46.337Z,11.46
2023-03-14T02:46:18.416Z,11.46
2023-03-14T02:48:52.904Z,11.43
2023-03-14T02:51:21.851Z,11.49
2023-03-14T02:53:50.194Z,11.42
2023-03-14T02:56:18.484Z,11.45
2023-03-14T02:58:47.876Z,11.50
2023-03-14T03:01:35.856Z,11.42
2023-03-14T03:04:04.163Z,11.36
2023-03-14T03:06:32.151Z,11.35
2023-03-14T03:09:00.161Z,11.40
2023-03-14T03:11:28.193Z,11.40
2023-03-14T03:13:57.791Z,11.50
2023-03-14T03:16:27.065Z,11.42
2023-03-14T03:18:55.353Z,11.50
2023-03-14T03:21:24.922Z,11.51
2023-03-14T03:23:53.183Z,11.47
2023-03-14T03:26:21.138Z,11.50
2023-03-14T03:28:49.161Z,11.55
2023-03-14T03:31:19.372Z,11.59
2023-03-14T03:33:48.829Z,11.63
2023-03-14T03:36:23.037Z,11.63
2023-03-14T03:38:52.432Z,11.57
2023-03-14T03:41:20.642Z,11.58
2023-03-14T03:43:50.114Z,11.56
2023-03-14T03:46:20.252Z,11.52
2023-03-14T03:48:48.409Z,11.55
2023-03-14T03:51:17.246Z,11.58
2023-03-14T03:53:45.975Z,11.63
2023-03-14T03:56:16.731Z,11.60
2023-03-14T03:58:45.614Z,11.59
2023-03-14T04:01:13.722Z,11.60
2023-03-14T04:03:43.658Z,11.67
2023-03-14T04:06:14.746Z,11.53
2023-03-14T04:08:45.486Z,11.33
2023-03-14T04:11:25.416Z,11.28
2023-03-14T04:14:03.999Z,11.18
2023-03-14T04:16:37.402Z,11.16
2023-03-14T04:19:22.410Z,11.08
2023-03-14T04:21:53.407Z,11.09
2023-03-14T04:24:24.012Z,11.00
2023-03-14T04:26:53.238Z,10.97
2023-03-14T04:29:34.538Z,10.83
2023-03-14T04:32:02.747Z,10.89
2023-03-14T04:34:33.735Z,10.82
2023-03-14T04:37:07.074Z,10.83
2023-03-14T04:39:44.015Z,10.80
2023-03-14T04:42:37.137Z,10.75
2023-03-14T04:45:10.873Z,10.74
2023-03-14T04:47:43.729Z,10.66
2023-03-14T04:50:23.022Z,10.58
2023-03-14T04:52:52.615Z,10.44
2023-03-14T04:58:07.877Z,10.42
2023-03-14T05:00:38.189Z,10.39
2023-03-14T05:03:35.669Z,10.38
2023-03-14T05:06:48.446Z,10.42
2023-03-14T05:09:46.618Z,10.46
2023-03-14T05:12:34.284Z,10.51
2023-03-14T05:15:30.334Z,10.56
2023-03-14T05:18:17.475Z,10.57
2023-03-14T05:20:58.302Z,10.59
2023-03-14T05:23:47.789Z,10.57
2023-03-14T05:26:36.331Z,10.54
2023-03-14T05:29:31.193Z,10.56
2023-03-14T05:32:25.708Z,10.53
2023-03-14T05:35:15.449Z,10.57
2023-03-14T05:37:58.806Z,10.60
2023-03-14T05:41:00.864Z,10.59
2023-03-14T05:43:54.340Z,10.57
2023-03-14T05:46:44.665Z,10.61
2023-03-14T05:53:05.366Z,10.59
2023-03-14T05:55:42.656Z,10.72
2023-03-14T05:58:44.703Z,10.74
2023-03-14T06:01:41.897Z,10.83
2023-03-14T06:04:21.625Z,10.91
2023-03-14T06:07:00.632Z,10.93
2023-03-14T06:09:30.718Z,10.93
2023-03-14T06:12:04.293Z,11.03
2023-03-14T06:17:53.758Z,11.07
2023-03-14T06:23:13.301Z,11.13
2023-03-14T06:25:52.023Z,11.18
2023-03-14T06:28:36.851Z,11.19
2023-03-14T06:31:10.951Z,11.41
2023-03-14T06:34:05.249Z,11.43
2023-03-14T06:39:34.441Z,11.41
2023-03-14T06:45:32.575Z,11.45
2023-03-14T06:48:22.934Z,11.49
2023-03-14T06:51:01.198Z,11.52
2023-03-14T06:53:45.873Z,11.50
2023-03-14T06:56:18.431Z,11.49
2023-03-14T06:59:04.232Z,11.67
2023-03-14T07:01:40.427Z,11.68
2023-03-14T07:04:16.262Z,11.49
2023-03-14T07:06:48.803Z,11.55
2023-03-14T07:09:21.131Z,11.63
2023-03-14T07:11:55.243Z,11.73
2023-03-14T07:14:28.382Z,11.85
2023-03-14T07:17:00.531Z,11.84
2023-03-14T07:19:39.299Z,11.81
2023-03-14T07:22:12.612Z,11.91
2023-03-14T07:28:28.082Z,11.91
2023-03-14T07:31:18.115Z,11.78
2023-03-14T07:33:57.138Z,11.60
2023-03-14T07:36:55.574Z,11.47
2023-03-14T07:39:24.711Z,11.55
2023-03-14T07:42:12.794Z,11.57
2023-03-14T07:45:00.492Z,11.54
2023-03-14T07:47:34.153Z,11.54
2023-03-14T07:50:10.837Z,11.81
2023-03-14T07:52:50.173Z,11.90
2023-03-14T07:55:20.986Z,12.02
2023-03-14T07:57:53.704Z,12.13
2023-03-14T08:00:29.409Z,12.17
2023-03-14T08:03:05.181Z,12.05
2023-03-14T08:05:39.453Z,12.00
2023-03-14T08:11:17.201Z,11.99
2023-03-14T08:13:53.856Z,12.02
2023-03-14T08:16:25.138Z,12.13
2023-03-14T08:19:13.537Z,12.09
2023-03-14T08:21:42.773Z,12.17
2023-03-14T08:24:14.372Z,12.32
2023-03-14T08:26:51.699Z,12.40
2023-03-14T08:29:24.900Z,12.54
2023-03-14T08:32:00.698Z,12.60
2023-03-14T08:34:35.286Z,12.67
2023-03-14T08:37:23.808Z,12.65
2023-03-14T08:40:10.195Z,12.30
2023-03-14T08:42:43.360Z,12.30
2023-03-14T08:45:17.408Z,12.30
2023-03-14T08:47:51.862Z,12.18
2023-03-14T08:50:26.421Z,12.09
2023-03-14T08:52:54.938Z,12.11
2023-03-14T08:55:25.495Z,12.36
2023-03-14T09:00:56.832Z,12.46
2023-03-14T09:03:42.259Z,12.49
2023-03-14T09:06:14.724Z,12.52
2023-03-14T09:08:45.443Z,12.50
2023-03-14T09:11:21.501Z,12.55
2023-03-14T09:13:58.140Z,12.68
2023-03-14T09:16:33.121Z,12.74
2023-03-14T09:19:06.482Z,12.78
2023-03-14T09:21:39.025Z,13.02
2023-03-14T09:24:15.902Z,13.37
2023-03-14T09:27:05.882Z,13.67
2023-03-14T09:29:36.057Z,13.54
2023-03-14T09:32:09.809Z,13.37
2023-03-14T09:34:41.636Z,13.29
2023-03-14T09:37:12.287Z,13.13
2023-03-14T09:39:46.086Z,12.87
2023-03-14T09:42:21.392Z,12.81
2023-03-14T09:45:06.774Z,12.85
2023-03-14T09:47:56.416Z,13.01
2023-03-14T09:50:41.657Z,12.88
2023-03-14T09:53:22.567Z,12.97
2023-03-14T09:55:52.779Z,13.30
2023-03-14T09:58:30.733Z,13.11
2023-03-14T10:01:04.734Z,12.99
2023-03-14T10:03:39.418Z,12.97
2023-03-14T10:06:22.595Z,12.99
2023-03-14T10:11:55.604Z,13.20
2023-03-14T10:14:41.581Z,13.41
2023-03-14T10:17:25.100Z,12.96
2023-03-14T10:20:01.981Z,12.79
2023-03-14T10:22:33.437Z,13.01
2023-03-14T10:25:04.291Z,13.17
2023-03-14T10:27:42.026Z,13.15
2023-03-14T10:30:37.685Z,13.16
2023-03-14T10:33:13.366Z,13.59
2023-03-14T10:35:49.876Z,13.57
2023-03-14T10:38:35.272Z,13.81
2023-03-14T10:41:33.078Z,13.65
2023-03-14T10:44:19.796Z,13.65
2023-03-14T10:46:59.148Z,13.73
2023-03-14T10:49:37.479Z,13.61
2023-03-14T10:52:31.577Z,13.44
2023-03-14T10:56:07.781Z,13.16
2023-03-14T10:58:46.182Z,13.30
2023-03-14T11:01:35.581Z,13.06
2023-03-14T11:04:33.635Z,12.72
2023-03-14T11:07:07.636Z,12.58
2023-03-14T11:09:46.716Z,12.37
2023-03-14T11:12:46.186Z,12.29
2023-03-14T11:15:27.545Z,12.22
2023-03-14T11:18:17.781Z,12.25
2023-03-14T11:20:59.359Z,12.21
2023-03-14T11:23:34.707Z,10.67
2023-03-14T11:26:11.120Z,9.16
2023-03-14T11:28:48.927Z,8.05
2023-03-14T11:31:25.918Z,7.80
2023-03-14T11:33:59.252Z,7.23
2023-03-14T11:36:35.071Z,6.96
2023-03-14T11:39:17.513Z,5.75
2023-03-14T11:41:50.003Z,5.28
2023-03-14T11:44:34.760Z,4.91
2023-03-14T11:47:18.701Z,4.68
2023-03-14T11:49:54.462Z,4.60
2023-03-14T11:52:59.049Z,4.55
2023-03-14T11:55:33.624Z,4.55
2023-03-14T11:58:29.840Z,4.52
2023-03-14T12:01:10.048Z,4.56
2023-03-14T12:03:45.535Z,4.54
2023-03-14T12:06:20.199Z,4.43
2023-03-14T12:08:56.690Z,4.36
2023-03-14T12:12:11.990Z,4.36
2023-03-14T12:15:42.865Z,4.17
2023-03-14T12:18:42.916Z,4.20
2023-03-14T12:21:15.650Z,4.00
2023-03-14T12:23:54.510Z,3.98
2023-03-14T12:26:33.212Z,3.77
2023-03-14T12:29:19.514Z,3.87
2023-03-14T12:31:53.449Z,3.67
2023-03-14T12:34:43.028Z,3.70
2023-03-14T12:37:38.143Z,3.61
2023-03-14T12:40:18.890Z,3.63
2023-03-14T12:43:01.591Z,3.64
2023-03-14T12:45:39.587Z,3.48
2023-03-14T12:48:26.086Z,3.50
2023-03-14T12:51:02.021Z,3.42
2023-03-14T12:54:05.176Z,3.44
2023-03-14T12:57:12.419Z,3.48
2023-03-14T12:59:58.163Z,3.55
2023-03-14T13:09:52.864Z,3.86
2023-03-14T13:17:19.368Z,4.10
2023-03-14T13:23:21.021Z,4.40
2023-03-14T13:25:55.880Z,4.37
2023-03-14T13:28:53.532Z,4.24
2023-03-14T13:38:27.222Z,4.47
2023-03-14T13:41:00.371Z,4.58
2023-03-14T13:43:32.050Z,4.49
2023-03-14T13:46:04.715Z,4.44
2023-03-14T13:48:34.737Z,4.47
2023-03-14T13:51:07.236Z,4.46
2023-03-14T13:53:45.392Z,4.51
2023-03-14T13:56:14.680Z,4.60
2023-03-14T13:58:43.891Z,4.67
2023-03-14T14:01:17.204Z,4.65
2023-03-14T14:03:46.574Z,4.59
2023-03-14T14:06:26.160Z,4.77
2023-03-14T14:08:54.210Z,4.89
2023-03-14T14:11:35.471Z,4.83
2023-03-14T14:14:13.680Z,4.93
2023-03-14T14:16:46.029Z,4.94
2023-03-14T14:19:21.888Z,4.89
2023-03-14T14:21:51.766Z,4.87
2023-03-14T14:24:20.430Z,4.95
2023-03-14T14:26:50.318Z,5.01
2023-03-14T14:29:28.682Z,5.06
2023-03-14T14:32:05.153Z,5.02
2023-03-14T14:34:51.075Z,5.08
2023-03-14T14:37:27.993Z,5.24
2023-03-14T14:39:58.463Z,5.33
2023-03-14T14:42:28.673Z,5.28
2023-03-14T14:45:06.307Z,5.41
2023-03-14T14:47:35.177Z,5.29
2023-03-14T14:50:06.573Z,5.32
2023-03-14T14:52:40.820Z,5.50
2023-03-14T14:55:19.925Z,5.55
2023-03-14T14:57:53.067Z,5.38
2023-03-14T15:00:22.835Z,5.31
2023-03-14T15:02:54.864Z,5.32
2023-03-14T15:05:27.885Z,5.20
2023-03-14T15:07:58.378Z,5.30
2023-03-14T15:10:27.485Z,5.24
2023-03-14T15:12:57.628Z,5.21
2023-03-14T15:15:26.387Z,5.23
2023-03-14T15:17:55.170Z,5.22
2023-03-14T15:20:26.037Z,5.20
2023-03-14T15:22:54.817Z,5.23
2023-03-14T15:25:51.346Z,5.36
2023-03-14T15:28:19.242Z,5.54
2023-03-14T15:30:47.556Z,5.56
2023-03-14T15:33:17.063Z,5.47
2023-03-14T15:35:45.188Z,5.56
2023-03-14T15:38:14.915Z,5.62
2023-03-14T15:40:44.821Z,5.57
2023-03-14T15:43:12.934Z,5.57
2023-03-14T15:45:42.491Z,5.53
2023-03-14T15:48:17.104Z,5.73
2023-03-14T15:50:46.826Z,5.63
2023-03-14T15:53:15.673Z,5.72
2023-03-14T15:55:45.346Z,5.72
2023-03-14T15:58:21.098Z,5.63
2023-03-14T16:00:50.739Z,5.59
2023-03-14T16:03:19.078Z,5.51
2023-03-14T16:05:47.746Z,5.63
2023-03-14T16:09:15.257Z,5.51
2023-03-14T16:16:33.734Z,5.49
2023-03-14T16:19:03.047Z,5.59
2023-03-14T16:21:33.720Z,5.58
2023-03-14T16:24:03.283Z,5.59
2023-03-14T16:26:34.748Z,5.46
2023-03-14T16:29:07.035Z,5.44
2023-03-14T16:31:35.875Z,5.41
2023-03-14T16:34:04.885Z,5.55
2023-03-14T16:36:33.266Z,5.44
2023-03-14T16:39:01.385Z,5.47
2023-03-14T16:41:31.638Z,5.41
2023-03-14T16:44:00.018Z,5.38
2023-03-14T16:46:31.221Z,5.40
2023-03-14T16:48:59.854Z,5.35
2023-03-14T16:51:28.590Z,5.41
2023-03-14T16:53:59.076Z,5.29
2023-03-14T16:56:27.247Z,5.27
2023-03-14T16:58:57.291Z,5.22
2023-03-14T17:01:26.030Z,5.21
2023-03-14T17:03:55.540Z,5.20
2023-03-14T17:06:26.135Z,5.16
2023-03-14T17:08:55.931Z,5.19
2023-03-14T17:11:25.955Z,5.22
2023-03-14T17:13:56.418Z,5.12
2023-03-14T17:16:24.997Z,5.19
2023-03-14T17:18:53.158Z,5.17
2023-03-14T17:21:25.059Z,5.16
2023-03-14T17:23:54.048Z,5.07
2023-03-14T17:26:22.533Z,5.08
2023-03-14T17:28:50.862Z,5.03
2023-03-14T17:31:20.492Z,5.09
2023-03-14T17:33:48.792Z,5.02
2023-03-14T17:36:18.168Z,5.01
2023-03-14T17:38:50.894Z,4.97
2023-03-14T17:41:19.017Z,4.92
2023-03-14T17:43:47.037Z,4.88
2023-03-14T17:46:17.067Z,4.85
2023-03-14T17:48:46.430Z,4.85
2023-03-14T17:51:16.105Z,4.91
2023-03-14T17:53:44.610Z,4.92
2023-03-14T17:56:14.351Z,4.85
2023-03-14T17:58:43.965Z,4.84
2023-03-14T18:01:13.981Z,4.87
2023-03-14T18:03:42.595Z,4.90
2023-03-14T18:06:11.937Z,4.89
2023-03-14T18:08:42.426Z,4.83
2023-03-14T18:11:11.009Z,4.86
2023-03-14T18:13:41.641Z,4.74
2023-03-14T18:16:14.248Z,4.70
2023-03-14T18:18:43.478Z,4.72
2023-03-14T18:21:14.914Z,4.72
2023-03-14T18:23:44.349Z,4.74
2023-03-14T18:26:12.626Z,4.66
2023-03-14T18:28:42.450Z,4.62
2023-03-14T18:31:11.879Z,4.66
2023-03-14T18:33:42.028Z,4.56
2023-03-14T18:36:11.044Z,4.56
2023-03-14T18:38:43.256Z,4.53
2023-03-14T18:41:12.973Z,4.47
2023-03-14T18:43:43.008Z,4.45
2023-03-14T18:46:11.705Z,4.40
2023-03-14T18:48:42.400Z,4.42
2023-03-14T18:51:11.715Z,4.37
2023-03-14T18:53:42.298Z,4.33
2023-03-14T18:56:12.749Z,4.32
2023-03-14T18:58:45.051Z,4.37
2023-03-14T19:01:13.562Z,4.34
2023-03-14T19:03:42.356Z,4.38
2023-03-14T19:06:12.152Z,4.28
2023-03-14T19:08:42.221Z,4.36
2023-03-14T19:11:12.207Z,4.30
2023-03-14T19:13:41.887Z,4.27
2023-03-14T19:16:12.906Z,4.23
2023-03-14T19:18:41.323Z,4.20
2023-03-14T19:21:10.845Z,4.18
2023-03-14T19:23:41.038Z,4.19
2023-03-14T19:26:09.938Z,4.15
2023-03-14T19:28:38.217Z,4.06
2023-03-14T19:31:07.398Z,4.12
2023-03-14T19:33:37.650Z,4.12
2023-03-14T19:36:06.485Z,4.02
2023-03-14T19:38:39.015Z,4.08
2023-03-14T19:41:07.012Z,4.06
2023-03-14T19:43:35.249Z,4.12
2023-03-14T19:46:06.039Z,3.97
2023-03-14T19:48:34.099Z,3.99
2023-03-14T19:51:04.106Z,3.99
2023-03-14T19:53:32.464Z,4.01
2023-03-14T19:56:00.722Z,3.82
2023-03-14T19:58:28.829Z,3.83
2023-03-14T20:00:57.664Z,3.68
2023-03-14T20:03:26.632Z,3.74
2023-03-14T20:05:54.978Z,3.72
2023-03-14T20:08:24.791Z,3.62
2023-03-14T20:10:53.041Z,3.57
2023-03-14T20:13:22.673Z,3.56
2023-03-14T20:15:53.172Z,3.53
2023-03-14T20:18:23.280Z,3.52
2023-03-14T20:20:52.267Z,3.47
2023-03-14T20:23:20.523Z,3.45
2023-03-14T20:25:55.653Z,3.41
2023-03-14T20:28:24.048Z,3.50
2023-03-14T20:30:52.439Z,3.39
2023-03-14T20:33:25.749Z,3.47
2023-03-14T20:35:57.786Z,3.41
2023-03-14T20:38:27.204Z,3.35
2023-03-14T20:40:58.611Z,3.38
2023-03-14T20:43:27.097Z,3.34
2023-03-14T20:45:55.751Z,3.39
2023-03-14T20:48:24.637Z,3.33
2023-03-14T20:50:53.193Z,3.28
2023-03-14T20:53:21.606Z,3.27
2023-03-14T20:55:49.774Z,3.27
2023-03-14T20:58:19.587Z,3.31
2023-03-14T21:00:48.964Z,3.34
2023-03-14T21:03:18.455Z,3.33
2023-03-14T21:05:47.982Z,3.29
2023-03-14T21:08:16.657Z,3.26
2023-03-14T21:10:44.736Z,3.24
2023-03-14T21:13:12.989Z,3.22
2023-03-14T21:15:42.474Z,3.33
2023-03-14T21:18:10.689Z,3.21
2023-03-14T21:20:40.075Z,3.32
2023-03-14T21:23:08.812Z,3.17
2023-03-14T21:25:36.921Z,3.14
2023-03-14T21:28:05.443Z,3.14
2023-03-14T21:30:34.588Z,3.15
2023-03-14T21:33:04.160Z,3.24
2023-03-14T21:35:32.140Z,3.08
2023-03-14T21:38:00.443Z,3.11
2023-03-14T21:40:28.502Z,3.16
2023-03-14T21:42:57.645Z,3.18
2023-03-14T21:45:27.781Z,3.18
2023-03-14T21:47:56.351Z,3.15
2023-03-14T21:50:26.856Z,3.10
2023-03-14T21:52:56.934Z,3.15
2023-03-14T21:55:26.298Z,3.13
2023-03-14T21:57:55.249Z,3.18
2023-03-14T22:00:24.942Z,3.19
2023-03-14T22:03:11.625Z,3.20
2023-03-14T22:05:44.622Z,3.21
2023-03-14T22:08:12.760Z,3.17
2023-03-14T22:10:44.689Z,3.18
2023-03-14T22:13:12.730Z,3.09
2023-03-14T22:15:40.832Z,3.02
2023-03-14T22:18:08.839Z,3.01
2023-03-14T22:20:36.892Z,3.01
2023-03-14T22:23:06.180Z,2.97
2023-03-14T22:25:34.417Z,2.98
2023-03-14T22:28:02.336Z,2.92
2023-03-14T22:30:30.672Z,2.80
2023-03-14T22:32:58.878Z,2.86
2023-03-14T22:35:28.141Z,2.88
2023-03-14T22:37:56.282Z,2.84
2023-03-14T22:40:25.652Z,2.90
2023-03-14T22:42:53.757Z,2.81
2023-03-14T22:45:22.031Z,2.92
2023-03-14T22:47:50.041Z,2.86
2023-03-14T22:50:18.347Z,2.94
2023-03-14T22:52:46.295Z,2.90
2023-03-14T22:55:14.345Z,2.93
2023-03-14T22:57:43.762Z,2.99
2023-03-14T23:00:14.048Z,2.98
2023-03-14T23:02:42.258Z,3.03
2023-03-14T23:05:11.245Z,3.11
2023-03-14T23:07:39.243Z,3.07
2023-03-14T23:10:08.648Z,3.01
2023-03-14T23:12:36.656Z,2.93
2023-03-14T23:15:08.398Z,3.03
2023-03-14T23:17:36.692Z,2.94
2023-03-14T23:20:06.643Z,2.95
2023-03-14T23:22:34.812Z,2.91
2023-03-14T23:25:03.818Z,2.96
2023-03-14T23:27:32.121Z,2.89
2023-03-14T23:30:00.397Z,2.88
2023-03-14T23:32:29.818Z,2.91
2023-03-14T23:34:57.861Z,2.81
2023-03-14T23:37:26.010Z,2.86
2023-03-14T23:39:53.936Z,2.87
2023-03-14T23:42:22.026Z,2.93
2023-03-14T23:44:50.028Z,2.80
2023-03-14T23:47:18.126Z,2.76
2023-03-14T23:49:47.440Z,2.73
2023-03-14T23:52:15.427Z,2.72
2023-03-14T23:54:43.384Z,2.69
2023-03-14T23:57:11.413Z,2.76
2023-03-14T23:59:39.834Z,2.69
